sensor_id;sensor_type;location;lat;lon;timestamp;temperature;humidity
37052;DHT22;22964;52.272;13.356;2023-06-22T00:01:03;24.30;56.90
37052;DHT22;22964;52.272;13.356;2023-06-22T00:03:29;24.30;56.40
37052;DHT22;22964;52.272;13.356;2023-06-22T00:05:55;24.20;56.50
37052;DHT22;22964;52.272;13.356;2023-06-22T00:08:21;24.20;56.70
37052;DHT22;22964;52.272;13.356;2023-06-22T00:10:47;24.20;56.80
37052;DHT22;22964;52.272;13.356;2023-06-22T00:13:14;24.10;56.80
37052;DHT22;22964;52.272;13.356;2023-06-22T00:15:41;24.10;57.00
37052;DHT22;22964;52.272;13.356;2023-06-22T00:18:08;24.10;57.10
37052;DHT22;22964;52.272;13.356;2023-06-22T00:20:34;24.00;57.10
37052;DHT22;22964;52.272;13.356;2023-06-22T00:23:03;24.00;57.30
37052;DHT22;22964;52.272;13.356;2023-06-22T00:25:34;24.00;57.50
37052;DHT22;22964;52.272;13.356;2023-06-22T00:28:00;24.00;57.60
37052;DHT22;22964;52.272;13.356;2023-06-22T00:30:26;23.90;57.60
37052;DHT22;22964;52.272;13.356;2023-06-22T00:32:52;23.90;57.70
37052;DHT22;22964;52.272;13.356;2023-06-22T00:35:18;23.90;57.80
37052;DHT22;22964;52.272;13.356;2023-06-22T00:37:43;23.80;57.90
37052;DHT22;22964;52.272;13.356;2023-06-22T00:40:10;23.90;58.00
37052;DHT22;22964;52.272;13.356;2023-06-22T00:42:38;23.80;58.20
37052;DHT22;22964;52.272;13.356;2023-06-22T00:45:05;23.80;58.30
37052;DHT22;22964;52.272;13.356;2023-06-22T00:47:34;23.80;58.50
37052;DHT22;22964;52.272;13.356;2023-06-22T00:49:59;23.80;58.80
37052;DHT22;22964;52.272;13.356;2023-06-22T00:52:26;23.80;58.70
37052;DHT22;22964;52.272;13.356;2023-06-22T00:54:53;23.80;58.90
37052;DHT22;22964;52.272;13.356;2023-06-22T00:57:20;23.80;59.10
37052;DHT22;22964;52.272;13.356;2023-06-22T00:59:48;23.80;59.00
37052;DHT22;22964;52.272;13.356;2023-06-22T01:02:14;23.80;59.30
37052;DHT22;22964;52.272;13.356;2023-06-22T01:04:40;23.80;59.30
37052;DHT22;22964;52.272;13.356;2023-06-22T01:07:31;23.80;60.00
37052;DHT22;22964;52.272;13.356;2023-06-22T01:10:22;23.80;60.60
37052;DHT22;22964;52.272;13.356;2023-06-22T01:13:03;23.80;60.80
37052;DHT22;22964;52.272;13.356;2023-06-22T01:15:41;23.80;60.90
37052;DHT22;22964;52.272;13.356;2023-06-22T01:18:09;23.80;60.70
37052;DHT22;22964;52.272;13.356;2023-06-22T01:20:37;23.80;60.20
37052;DHT22;22964;52.272;13.356;2023-06-22T01:23:18;23.80;60.30
37052;DHT22;22964;52.272;13.356;2023-06-22T01:25:47;23.80;60.80
37052;DHT22;22964;52.272;13.356;2023-06-22T01:30:58;23.80;61.80
37052;DHT22;22964;52.272;13.356;2023-06-22T01:33:37;23.80;60.60
37052;DHT22;22964;52.272;13.356;2023-06-22T01:36:05;23.80;61.40
37052;DHT22;22964;52.272;13.356;2023-06-22T01:38:32;23.80;61.00
37052;DHT22;22964;52.272;13.356;2023-06-22T01:40:59;23.80;61.40
37052;DHT22;22964;52.272;13.356;2023-06-22T01:43:26;23.80;61.60
37052;DHT22;22964;52.272;13.356;2023-06-22T01:45:55;23.70;61.90
37052;DHT22;22964;52.272;13.356;2023-06-22T01:48:22;23.70;62.20
37052;DHT22;22964;52.272;13.356;2023-06-22T01:50:49;23.70;62.30
37052;DHT22;22964;52.272;13.356;2023-06-22T01:53:15;23.70;62.50
37052;DHT22;22964;52.272;13.356;2023-06-22T01:55:40;23.70;62.80
37052;DHT22;22964;52.272;13.356;2023-06-22T01:58:06;23.70;63.20
37052;DHT22;22964;52.272;13.356;2023-06-22T02:00:37;23.60;63.40
37052;DHT22;22964;52.272;13.356;2023-06-22T02:03:10;23.60;64.70
37052;DHT22;22964;52.272;13.356;2023-06-22T02:05:41;23.60;64.10
37052;DHT22;22964;52.272;13.356;2023-06-22T02:08:16;23.60;63.70
37052;DHT22;22964;52.272;13.356;2023-06-22T02:10:45;23.50;64.40
37052;DHT22;22964;52.272;13.356;2023-06-22T02:13:13;23.50;64.10
37052;DHT22;22964;52.272;13.356;2023-06-22T02:15:40;23.50;64.40
37052;DHT22;22964;52.272;13.356;2023-06-22T02:18:06;23.50;64.40
37052;DHT22;22964;52.272;13.356;2023-06-22T02:20:32;23.40;64.50
37052;DHT22;22964;52.272;13.356;2023-06-22T02:22:58;23.40;64.80
37052;DHT22;22964;52.272;13.356;2023-06-22T02:25:24;23.40;64.90
37052;DHT22;22964;52.272;13.356;2023-06-22T02:27:50;23.40;65.10
37052;DHT22;22964;52.272;13.356;2023-06-22T02:30:16;23.30;65.30
37052;DHT22;22964;52.272;13.356;2023-06-22T02:32:42;23.30;65.70
37052;DHT22;22964;52.272;13.356;2023-06-22T02:35:09;23.30;65.90
37052;DHT22;22964;52.272;13.356;2023-06-22T02:37:38;23.30;66.30
37052;DHT22;22964;52.272;13.356;2023-06-22T02:40:07;23.20;67.00
37052;DHT22;22964;52.272;13.356;2023-06-22T02:42:35;23.20;66.80
37052;DHT22;22964;52.272;13.356;2023-06-22T02:45:01;23.20;67.00
37052;DHT22;22964;52.272;13.356;2023-06-22T02:47:26;23.20;67.10
37052;DHT22;22964;52.272;13.356;2023-06-22T02:49:52;23.20;67.40
37052;DHT22;22964;52.272;13.356;2023-06-22T02:52:18;23.20;67.50
37052;DHT22;22964;52.272;13.356;2023-06-22T02:54:44;23.20;67.80
37052;DHT22;22964;52.272;13.356;2023-06-22T02:57:13;23.20;68.60
37052;DHT22;22964;52.272;13.356;2023-06-22T02:59:41;23.20;68.00
37052;DHT22;22964;52.272;13.356;2023-06-22T03:02:09;23.20;68.00
37052;DHT22;22964;52.272;13.356;2023-06-22T03:04:35;23.20;68.10
37052;DHT22;22964;52.272;13.356;2023-06-22T03:07:01;23.20;68.10
37052;DHT22;22964;52.272;13.356;2023-06-22T03:09:29;23.10;68.00
37052;DHT22;22964;52.272;13.356;2023-06-22T03:11:56;23.10;68.10
37052;DHT22;22964;52.272;13.356;2023-06-22T03:14:25;23.10;68.30
37052;DHT22;22964;52.272;13.356;2023-06-22T03:16:52;23.10;68.50
37052;DHT22;22964;52.272;13.356;2023-06-22T03:19:18;23.10;68.60
37052;DHT22;22964;52.272;13.356;2023-06-22T03:21:45;23.00;68.40
37052;DHT22;22964;52.272;13.356;2023-06-22T03:24:10;23.00;68.50
37052;DHT22;22964;52.272;13.356;2023-06-22T03:26:37;23.00;68.70
37052;DHT22;22964;52.272;13.356;2023-06-22T03:29:03;22.90;68.80
37052;DHT22;22964;52.272;13.356;2023-06-22T03:31:30;22.90;69.70
37052;DHT22;22964;52.272;13.356;2023-06-22T03:33:56;22.90;69.10
37052;DHT22;22964;52.272;13.356;2023-06-22T03:36:23;22.90;69.50
37052;DHT22;22964;52.272;13.356;2023-06-22T03:38:50;22.80;69.70
37052;DHT22;22964;52.272;13.356;2023-06-22T03:41:16;22.90;70.30
37052;DHT22;22964;52.272;13.356;2023-06-22T03:43:42;22.80;70.50
37052;DHT22;22964;52.272;13.356;2023-06-22T03:46:08;22.80;70.90
37052;DHT22;22964;52.272;13.356;2023-06-22T03:48:34;22.80;71.20
37052;DHT22;22964;52.272;13.356;2023-06-22T03:51:00;22.80;71.40
37052;DHT22;22964;52.272;13.356;2023-06-22T03:53:26;22.80;71.40
37052;DHT22;22964;52.272;13.356;2023-06-22T03:55:52;22.80;71.50
37052;DHT22;22964;52.272;13.356;2023-06-22T03:58:21;22.80;71.80
37052;DHT22;22964;52.272;13.356;2023-06-22T04:00:48;22.80;72.50
37052;DHT22;22964;52.272;13.356;2023-06-22T04:03:15;22.80;72.20
37052;DHT22;22964;52.272;13.356;2023-06-22T04:05:41;22.80;72.30
37052;DHT22;22964;52.272;13.356;2023-06-22T04:08:07;22.90;72.70
37052;DHT22;22964;52.272;13.356;2023-06-22T04:10:33;22.90;72.80
37052;DHT22;22964;52.272;13.356;2023-06-22T04:12:58;22.90;72.90
37052;DHT22;22964;52.272;13.356;2023-06-22T04:15:24;23.00;73.10
37052;DHT22;22964;52.272;13.356;2023-06-22T04:17:50;23.00;73.30
37052;DHT22;22964;52.272;13.356;2023-06-22T04:20:15;23.00;73.70
37052;DHT22;22964;52.272;13.356;2023-06-22T04:22:41;23.00;74.00
37052;DHT22;22964;52.272;13.356;2023-06-22T04:25:07;23.10;74.40
37052;DHT22;22964;52.272;13.356;2023-06-22T04:27:36;23.10;74.40
37052;DHT22;22964;52.272;13.356;2023-06-22T04:30:08;23.10;74.50
37052;DHT22;22964;52.272;13.356;2023-06-22T04:32:35;23.20;75.10
37052;DHT22;22964;52.272;13.356;2023-06-22T04:35:05;23.20;74.60
37052;DHT22;22964;52.272;13.356;2023-06-22T04:37:32;23.30;74.80
37052;DHT22;22964;52.272;13.356;2023-06-22T04:39:58;23.40;75.00
37052;DHT22;22964;52.272;13.356;2023-06-22T04:42:26;23.40;74.50
37052;DHT22;22964;52.272;13.356;2023-06-22T04:44:51;23.50;74.50
37052;DHT22;22964;52.272;13.356;2023-06-22T04:47:17;23.60;74.20
37052;DHT22;22964;52.272;13.356;2023-06-22T04:49:43;23.60;74.10
37052;DHT22;22964;52.272;13.356;2023-06-22T04:52:10;23.70;74.20
37052;DHT22;22964;52.272;13.356;2023-06-22T04:54:37;23.80;74.10
37052;DHT22;22964;52.272;13.356;2023-06-22T04:57:05;23.90;73.80
37052;DHT22;22964;52.272;13.356;2023-06-22T04:59:35;24.00;73.80
37052;DHT22;22964;52.272;13.356;2023-06-22T05:02:02;24.00;73.30
37052;DHT22;22964;52.272;13.356;2023-06-22T05:04:29;24.10;73.00
37052;DHT22;22964;52.272;13.356;2023-06-22T05:06:59;24.20;72.80
37052;DHT22;22964;52.272;13.356;2023-06-22T05:09:29;24.20;72.90
37052;DHT22;22964;52.272;13.356;2023-06-22T05:11:55;24.30;72.80
37052;DHT22;22964;52.272;13.356;2023-06-22T05:14:22;24.30;72.40
37052;DHT22;22964;52.272;13.356;2023-06-22T05:16:48;24.40;72.20
37052;DHT22;22964;52.272;13.356;2023-06-22T05:19:14;24.40;72.00
37052;DHT22;22964;52.272;13.356;2023-06-22T05:21:40;24.50;71.80
37052;DHT22;22964;52.272;13.356;2023-06-22T05:24:06;24.60;71.70
37052;DHT22;22964;52.272;13.356;2023-06-22T05:26:33;24.70;71.40
37052;DHT22;22964;52.272;13.356;2023-06-22T05:29:01;24.80;71.30
37052;DHT22;22964;52.272;13.356;2023-06-22T05:31:27;24.80;70.90
37052;DHT22;22964;52.272;13.356;2023-06-22T05:33:54;24.90;70.50
37052;DHT22;22964;52.272;13.356;2023-06-22T05:36:20;25.00;70.00
37052;DHT22;22964;52.272;13.356;2023-06-22T05:38:47;25.10;69.50
37052;DHT22;22964;52.272;13.356;2023-06-22T05:41:13;25.30;69.20
37052;DHT22;22964;52.272;13.356;2023-06-22T05:43:40;25.30;68.80
37052;DHT22;22964;52.272;13.356;2023-06-22T05:46:06;25.40;68.50
37052;DHT22;22964;52.272;13.356;2023-06-22T05:48:32;25.50;68.30
37052;DHT22;22964;52.272;13.356;2023-06-22T05:50:58;25.60;67.40
37052;DHT22;22964;52.272;13.356;2023-06-22T05:53:24;25.60;67.20
37052;DHT22;22964;52.272;13.356;2023-06-22T05:55:49;25.70;66.70
37052;DHT22;22964;52.272;13.356;2023-06-22T05:58:15;25.70;66.40
37052;DHT22;22964;52.272;13.356;2023-06-22T06:00:41;25.80;66.40
37052;DHT22;22964;52.272;13.356;2023-06-22T06:03:09;25.80;65.90
37052;DHT22;22964;52.272;13.356;2023-06-22T06:05:35;25.80;65.40
37052;DHT22;22964;52.272;13.356;2023-06-22T06:08:03;25.80;65.20
37052;DHT22;22964;52.272;13.356;2023-06-22T06:10:33;25.80;65.10
37052;DHT22;22964;52.272;13.356;2023-06-22T06:12:59;25.90;65.30
37052;DHT22;22964;52.272;13.356;2023-06-22T06:15:29;25.90;64.80
37052;DHT22;22964;52.272;13.356;2023-06-22T06:17:55;26.00;64.60
37052;DHT22;22964;52.272;13.356;2023-06-22T06:20:23;26.00;64.40
37052;DHT22;22964;52.272;13.356;2023-06-22T06:22:49;26.00;64.50
37052;DHT22;22964;52.272;13.356;2023-06-22T06:25:15;26.10;64.60
37052;DHT22;22964;52.272;13.356;2023-06-22T06:27:49;26.10;64.70
37052;DHT22;22964;52.272;13.356;2023-06-22T06:30:16;26.10;63.70
37052;DHT22;22964;52.272;13.356;2023-06-22T06:32:43;26.20;64.00
37052;DHT22;22964;52.272;13.356;2023-06-22T06:35:10;26.30;64.40
37052;DHT22;22964;52.272;13.356;2023-06-22T06:37:37;26.30;64.30
37052;DHT22;22964;52.272;13.356;2023-06-22T06:40:13;26.40;64.00
37052;DHT22;22964;52.272;13.356;2023-06-22T06:42:41;26.40;62.70
37052;DHT22;22964;52.272;13.356;2023-06-22T06:45:11;26.40;63.40
37052;DHT22;22964;52.272;13.356;2023-06-22T06:47:37;26.50;63.50
37052;DHT22;22964;52.272;13.356;2023-06-22T06:50:04;26.60;62.80
37052;DHT22;22964;52.272;13.356;2023-06-22T06:52:30;26.70;62.00
37052;DHT22;22964;52.272;13.356;2023-06-22T06:54:56;26.70;61.40
37052;DHT22;22964;52.272;13.356;2023-06-22T06:57:21;26.80;61.50
37052;DHT22;22964;52.272;13.356;2023-06-22T06:59:48;26.80;61.20
37052;DHT22;22964;52.272;13.356;2023-06-22T07:02:15;26.90;60.20
37052;DHT22;22964;52.272;13.356;2023-06-22T07:04:41;26.90;60.00
37052;DHT22;22964;52.272;13.356;2023-06-22T07:07:07;26.90;60.50
37052;DHT22;22964;52.272;13.356;2023-06-22T07:09:32;27.00;59.60
37052;DHT22;22964;52.272;13.356;2023-06-22T07:11:58;27.20;59.80
37052;DHT22;22964;52.272;13.356;2023-06-22T07:14:24;27.30;59.80
37052;DHT22;22964;52.272;13.356;2023-06-22T07:16:49;27.40;59.20
37052;DHT22;22964;52.272;13.356;2023-06-22T07:19:27;27.60;59.10
37052;DHT22;22964;52.272;13.356;2023-06-22T07:21:53;27.70;57.30
37052;DHT22;22964;52.272;13.356;2023-06-22T07:24:22;27.90;57.80
37052;DHT22;22964;52.272;13.356;2023-06-22T07:26:49;28.00;57.00
37052;DHT22;22964;52.272;13.356;2023-06-22T07:29:19;28.10;57.30
37052;DHT22;22964;52.272;13.356;2023-06-22T07:31:47;28.20;56.20
37052;DHT22;22964;52.272;13.356;2023-06-22T07:34:13;28.20;56.30
37052;DHT22;22964;52.272;13.356;2023-06-22T07:36:39;28.20;56.70
37052;DHT22;22964;52.272;13.356;2023-06-22T07:39:05;28.20;56.40
37052;DHT22;22964;52.272;13.356;2023-06-22T07:41:31;28.20;56.10
37052;DHT22;22964;52.272;13.356;2023-06-22T07:43:57;28.20;55.90
37052;DHT22;22964;52.272;13.356;2023-06-22T07:46:23;28.20;55.90
37052;DHT22;22964;52.272;13.356;2023-06-22T07:48:49;28.20;56.10
37052;DHT22;22964;52.272;13.356;2023-06-22T07:51:14;28.30;56.40
37052;DHT22;22964;52.272;13.356;2023-06-22T07:53:44;28.30;56.50
37052;DHT22;22964;52.272;13.356;2023-06-22T07:56:13;28.40;56.90
37052;DHT22;22964;52.272;13.356;2023-06-22T07:58:39;28.40;56.10
37052;DHT22;22964;52.272;13.356;2023-06-22T08:01:05;28.50;55.90
37052;DHT22;22964;52.272;13.356;2023-06-22T08:03:32;28.60;55.80
37052;DHT22;22964;52.272;13.356;2023-06-22T08:05:57;28.50;55.40
37052;DHT22;22964;52.272;13.356;2023-06-22T08:08:23;28.60;55.30
37052;DHT22;22964;52.272;13.356;2023-06-22T08:10:49;28.60;55.00
37052;DHT22;22964;52.272;13.356;2023-06-22T08:13:15;28.60;54.80
37052;DHT22;22964;52.272;13.356;2023-06-22T08:15:41;28.60;54.90
37052;DHT22;22964;52.272;13.356;2023-06-22T08:18:06;28.60;55.10
37052;DHT22;22964;52.272;13.356;2023-06-22T08:20:32;28.60;55.40
37052;DHT22;22964;52.272;13.356;2023-06-22T08:22:58;28.60;55.10
37052;DHT22;22964;52.272;13.356;2023-06-22T08:25:30;28.60;54.70
37052;DHT22;22964;52.272;13.356;2023-06-22T08:27:56;28.60;55.40
37052;DHT22;22964;52.272;13.356;2023-06-22T08:30:22;28.60;55.10
37052;DHT22;22964;52.272;13.356;2023-06-22T08:32:48;28.60;55.30
37052;DHT22;22964;52.272;13.356;2023-06-22T08:35:13;28.60;55.40
37052;DHT22;22964;52.272;13.356;2023-06-22T08:37:39;28.70;55.30
37052;DHT22;22964;52.272;13.356;2023-06-22T08:40:08;28.70;55.30
37052;DHT22;22964;52.272;13.356;2023-06-22T08:42:37;28.80;55.10
37052;DHT22;22964;52.272;13.356;2023-06-22T08:45:04;28.90;55.10
37052;DHT22;22964;52.272;13.356;2023-06-22T08:47:30;28.90;54.80
37052;DHT22;22964;52.272;13.356;2023-06-22T08:49:56;29.00;54.90
37052;DHT22;22964;52.272;13.356;2023-06-22T08:52:22;29.10;54.60
37052;DHT22;22964;52.272;13.356;2023-06-22T08:54:49;29.10;53.70
37052;DHT22;22964;52.272;13.356;2023-06-22T08:57:15;29.10;53.50
37052;DHT22;22964;52.272;13.356;2023-06-22T08:59:42;29.10;53.20
37052;DHT22;22964;52.272;13.356;2023-06-22T09:02:08;29.10;53.30
37052;DHT22;22964;52.272;13.356;2023-06-22T09:04:33;29.20;53.40
37052;DHT22;22964;52.272;13.356;2023-06-22T09:07:03;29.20;53.50
37052;DHT22;22964;52.272;13.356;2023-06-22T09:09:29;29.20;53.10
37052;DHT22;22964;52.272;13.356;2023-06-22T09:11:54;29.20;53.50
37052;DHT22;22964;52.272;13.356;2023-06-22T09:14:20;29.30;53.40
37052;DHT22;22964;52.272;13.356;2023-06-22T09:16:46;29.30;53.40
37052;DHT22;22964;52.272;13.356;2023-06-22T09:19:12;29.40;53.40
37052;DHT22;22964;52.272;13.356;2023-06-22T09:21:37;29.40;53.20
37052;DHT22;22964;52.272;13.356;2023-06-22T09:24:03;29.50;53.00
37052;DHT22;22964;52.272;13.356;2023-06-22T09:26:29;29.60;53.00
37052;DHT22;22964;52.272;13.356;2023-06-22T09:28:55;29.60;53.00
37052;DHT22;22964;52.272;13.356;2023-06-22T09:31:21;29.60;52.60
37052;DHT22;22964;52.272;13.356;2023-06-22T09:33:53;29.70;52.40
37052;DHT22;22964;52.272;13.356;2023-06-22T09:36:19;29.70;53.30
37052;DHT22;22964;52.272;13.356;2023-06-22T09:38:45;29.80;52.30
37052;DHT22;22964;52.272;13.356;2023-06-22T09:41:10;29.80;52.00
37052;DHT22;22964;52.272;13.356;2023-06-22T09:43:36;29.90;51.80
37052;DHT22;22964;52.272;13.356;2023-06-22T09:46:02;29.90;51.70
37052;DHT22;22964;52.272;13.356;2023-06-22T09:48:28;30.00;51.20
37052;DHT22;22964;52.272;13.356;2023-06-22T09:50:56;30.00;50.40
37052;DHT22;22964;52.272;13.356;2023-06-22T09:53:22;30.00;50.30
37052;DHT22;22964;52.272;13.356;2023-06-22T09:55:48;29.90;50.30
37052;DHT22;22964;52.272;13.356;2023-06-22T09:58:14;29.90;50.50
37052;DHT22;22964;52.272;13.356;2023-06-22T10:00:40;29.90;50.00
37052;DHT22;22964;52.272;13.356;2023-06-22T10:03:07;29.90;49.90
37052;DHT22;22964;52.272;13.356;2023-06-22T10:05:33;29.80;49.50
37052;DHT22;22964;52.272;13.356;2023-06-22T10:07:58;29.90;50.30
37052;DHT22;22964;52.272;13.356;2023-06-22T10:10:24;29.80;49.60
37052;DHT22;22964;52.272;13.356;2023-06-22T10:12:57;29.80;49.60
37052;DHT22;22964;52.272;13.356;2023-06-22T10:15:28;29.80;49.10
37052;DHT22;22964;52.272;13.356;2023-06-22T10:17:53;29.70;49.20
37052;DHT22;22964;52.272;13.356;2023-06-22T10:20:19;29.70;49.60
37052;DHT22;22964;52.272;13.356;2023-06-22T10:22:46;29.70;50.00
37052;DHT22;22964;52.272;13.356;2023-06-22T10:25:12;29.70;49.70
37052;DHT22;22964;52.272;13.356;2023-06-22T10:27:39;29.70;49.30
37052;DHT22;22964;52.272;13.356;2023-06-22T10:30:09;29.70;49.60
37052;DHT22;22964;52.272;13.356;2023-06-22T10:32:37;29.70;49.60
37052;DHT22;22964;52.272;13.356;2023-06-22T10:35:03;29.70;50.20
37052;DHT22;22964;52.272;13.356;2023-06-22T10:37:28;29.80;49.70
37052;DHT22;22964;52.272;13.356;2023-06-22T10:39:54;29.80;48.90
37052;DHT22;22964;52.272;13.356;2023-06-22T10:42:20;29.90;49.00
37052;DHT22;22964;52.272;13.356;2023-06-22T10:44:46;29.90;49.60
37052;DHT22;22964;52.272;13.356;2023-06-22T10:47:11;29.90;49.00
37052;DHT22;22964;52.272;13.356;2023-06-22T10:49:38;30.00;49.00
37052;DHT22;22964;52.272;13.356;2023-06-22T10:52:05;30.10;49.20
37052;DHT22;22964;52.272;13.356;2023-06-22T10:54:34;30.20;48.50
37052;DHT22;22964;52.272;13.356;2023-06-22T10:57:01;30.30;48.30
37052;DHT22;22964;52.272;13.356;2023-06-22T10:59:27;30.40;48.50
37052;DHT22;22964;52.272;13.356;2023-06-22T11:01:55;30.50;47.70
37052;DHT22;22964;52.272;13.356;2023-06-22T11:04:21;30.60;47.60
37052;DHT22;22964;52.272;13.356;2023-06-22T11:06:48;30.80;47.20
37052;DHT22;22964;52.272;13.356;2023-06-22T11:09:14;30.90;46.70
37052;DHT22;22964;52.272;13.356;2023-06-22T11:11:45;31.00;46.80
37052;DHT22;22964;52.272;13.356;2023-06-22T11:14:10;31.00;46.70
37052;DHT22;22964;52.272;13.356;2023-06-22T11:16:36;31.10;46.10
37052;DHT22;22964;52.272;13.356;2023-06-22T11:19:02;31.20;46.30
37052;DHT22;22964;52.272;13.356;2023-06-22T11:21:28;31.30;45.80
37052;DHT22;22964;52.272;13.356;2023-06-22T11:23:54;31.40;45.70
37052;DHT22;22964;52.272;13.356;2023-06-22T11:26:20;31.40;45.80
37052;DHT22;22964;52.272;13.356;2023-06-22T11:28:46;31.50;45.90
37052;DHT22;22964;52.272;13.356;2023-06-22T11:31:12;31.60;46.00
37052;DHT22;22964;52.272;13.356;2023-06-22T11:33:38;31.70;44.90
37052;DHT22;22964;52.272;13.356;2023-06-22T11:36:04;31.80;44.50
37052;DHT22;22964;52.272;13.356;2023-06-22T11:38:30;32.00;45.00
37052;DHT22;22964;52.272;13.356;2023-06-22T11:41:00;32.10;44.20
37052;DHT22;22964;52.272;13.356;2023-06-22T11:43:26;32.20;44.30
37052;DHT22;22964;52.272;13.356;2023-06-22T11:45:51;32.40;44.30
37052;DHT22;22964;52.272;13.356;2023-06-22T11:48:17;32.50;43.70
37052;DHT22;22964;52.272;13.356;2023-06-22T11:50:43;32.60;42.80
37052;DHT22;22964;52.272;13.356;2023-06-22T11:53:08;32.70;42.50
37052;DHT22;22964;52.272;13.356;2023-06-22T11:55:34;32.80;41.80
37052;DHT22;22964;52.272;13.356;2023-06-22T11:58:00;32.80;41.20
37052;DHT22;22964;52.272;13.356;2023-06-22T12:00:26;32.80;40.80
37052;DHT22;22964;52.272;13.356;2023-06-22T12:02:52;32.70;41.10
37052;DHT22;22964;52.272;13.356;2023-06-22T12:05:19;32.70;40.70
37052;DHT22;22964;52.272;13.356;2023-06-22T12:07:49;32.70;40.40
37052;DHT22;22964;52.272;13.356;2023-06-22T12:10:17;32.70;39.60
37052;DHT22;22964;52.272;13.356;2023-06-22T12:12:43;32.70;40.30
37052;DHT22;22964;52.272;13.356;2023-06-22T12:15:09;32.80;40.50
37052;DHT22;22964;52.272;13.356;2023-06-22T12:17:36;32.80;40.30
37052;DHT22;22964;52.272;13.356;2023-06-22T12:20:01;32.90;40.30
37052;DHT22;22964;52.272;13.356;2023-06-22T12:22:31;33.00;39.90
37052;DHT22;22964;52.272;13.356;2023-06-22T12:24:57;33.00;39.30
37052;DHT22;22964;52.272;13.356;2023-06-22T12:27:23;33.20;40.00
37052;DHT22;22964;52.272;13.356;2023-06-22T12:29:49;33.20;39.20
37052;DHT22;22964;52.272;13.356;2023-06-22T12:32:14;33.30;39.90
37052;DHT22;22964;52.272;13.356;2023-06-22T12:34:42;33.40;39.00
37052;DHT22;22964;52.272;13.356;2023-06-22T12:37:08;33.50;39.40
37052;DHT22;22964;52.272;13.356;2023-06-22T12:39:33;33.60;39.50
37052;DHT22;22964;52.272;13.356;2023-06-22T12:41:59;33.70;39.50
37052;DHT22;22964;52.272;13.356;2023-06-22T12:44:25;33.70;38.50
37052;DHT22;22964;52.272;13.356;2023-06-22T12:46:51;33.80;38.70
37052;DHT22;22964;52.272;13.356;2023-06-22T12:49:16;33.80;38.30
37052;DHT22;22964;52.272;13.356;2023-06-22T12:51:43;33.90;38.10
37052;DHT22;22964;52.272;13.356;2023-06-22T12:54:10;33.90;38.10
37052;DHT22;22964;52.272;13.356;2023-06-22T12:56:36;33.90;38.60
37052;DHT22;22964;52.272;13.356;2023-06-22T12:59:04;33.90;38.10
37052;DHT22;22964;52.272;13.356;2023-06-22T13:01:30;34.00;37.40
37052;DHT22;22964;52.272;13.356;2023-06-22T13:03:58;34.00;37.10
37052;DHT22;22964;52.272;13.356;2023-06-22T13:06:23;34.00;37.00
37052;DHT22;22964;52.272;13.356;2023-06-22T13:08:49;34.00;37.00
37052;DHT22;22964;52.272;13.356;2023-06-22T13:11:15;34.10;37.70
37052;DHT22;22964;52.272;13.356;2023-06-22T13:13:41;34.10;37.30
37052;DHT22;22964;52.272;13.356;2023-06-22T13:16:07;34.10;36.70
37052;DHT22;22964;52.272;13.356;2023-06-22T13:18:33;34.20;36.60
37052;DHT22;22964;52.272;13.356;2023-06-22T13:21:01;34.20;36.80
37052;DHT22;22964;52.272;13.356;2023-06-22T13:23:27;34.30;37.20
37052;DHT22;22964;52.272;13.356;2023-06-22T13:25:53;34.40;36.90
37052;DHT22;22964;52.272;13.356;2023-06-22T13:28:18;34.40;37.00
37052;DHT22;22964;52.272;13.356;2023-06-22T13:30:46;34.50;37.00
37052;DHT22;22964;52.272;13.356;2023-06-22T13:33:16;34.60;37.40
37052;DHT22;22964;52.272;13.356;2023-06-22T13:35:42;34.70;35.80
37052;DHT22;22964;52.272;13.356;2023-06-22T13:38:09;34.70;35.90
37052;DHT22;22964;52.272;13.356;2023-06-22T13:40:35;34.80;36.10
37052;DHT22;22964;52.272;13.356;2023-06-22T13:43:01;34.80;35.70
37052;DHT22;22964;52.272;13.356;2023-06-22T13:45:27;34.80;35.50
37052;DHT22;22964;52.272;13.356;2023-06-22T13:47:53;34.90;35.80
37052;DHT22;22964;52.272;13.356;2023-06-22T13:50:18;34.90;35.30
37052;DHT22;22964;52.272;13.356;2023-06-22T13:52:44;34.90;34.90
37052;DHT22;22964;52.272;13.356;2023-06-22T13:55:10;34.90;34.80
37052;DHT22;22964;52.272;13.356;2023-06-22T13:57:36;34.80;34.30
37052;DHT22;22964;52.272;13.356;2023-06-22T14:00:04;34.80;34.70
37052;DHT22;22964;52.272;13.356;2023-06-22T14:02:37;34.70;34.50
37052;DHT22;22964;52.272;13.356;2023-06-22T14:05:03;34.60;35.00
37052;DHT22;22964;52.272;13.356;2023-06-22T14:07:29;34.60;35.10
37052;DHT22;22964;52.272;13.356;2023-06-22T14:09:55;34.60;35.80
37052;DHT22;22964;52.272;13.356;2023-06-22T14:12:20;34.60;35.00
37052;DHT22;22964;52.272;13.356;2023-06-22T14:14:46;34.60;35.40
37052;DHT22;22964;52.272;13.356;2023-06-22T14:17:12;34.70;36.00
37052;DHT22;22964;52.272;13.356;2023-06-22T14:19:39;34.70;35.40
37052;DHT22;22964;52.272;13.356;2023-06-22T14:22:06;34.80;35.20
37052;DHT22;22964;52.272;13.356;2023-06-22T14:24:32;34.80;34.90
37052;DHT22;22964;52.272;13.356;2023-06-22T14:26:57;34.80;34.80
37052;DHT22;22964;52.272;13.356;2023-06-22T14:29:23;34.90;35.30
37052;DHT22;22964;52.272;13.356;2023-06-22T14:31:49;34.90;34.40
37052;DHT22;22964;52.272;13.356;2023-06-22T14:34:15;34.90;34.60
37052;DHT22;22964;52.272;13.356;2023-06-22T14:36:42;34.90;34.50
37052;DHT22;22964;52.272;13.356;2023-06-22T14:39:08;34.80;34.40
37052;DHT22;22964;52.272;13.356;2023-06-22T14:41:35;34.80;34.30
37052;DHT22;22964;52.272;13.356;2023-06-22T14:44:01;34.80;34.50
37052;DHT22;22964;52.272;13.356;2023-06-22T14:46:26;34.80;34.80
37052;DHT22;22964;52.272;13.356;2023-06-22T14:48:52;34.70;34.30
37052;DHT22;22964;52.272;13.356;2023-06-22T14:51:18;34.70;34.30
37052;DHT22;22964;52.272;13.356;2023-06-22T14:53:44;34.70;34.30
37052;DHT22;22964;52.272;13.356;2023-06-22T14:56:11;34.70;34.60
37052;DHT22;22964;52.272;13.356;2023-06-22T14:58:40;34.70;34.60
37052;DHT22;22964;52.272;13.356;2023-06-22T15:01:06;34.70;35.20
37052;DHT22;22964;52.272;13.356;2023-06-22T15:03:35;34.70;34.60
37052;DHT22;22964;52.272;13.356;2023-06-22T15:06:03;34.70;34.40
37052;DHT22;22964;52.272;13.356;2023-06-22T15:08:29;34.80;34.10
37052;DHT22;22964;52.272;13.356;2023-06-22T15:10:55;34.80;34.50
37052;DHT22;22964;52.272;13.356;2023-06-22T15:13:21;34.80;34.30
37052;DHT22;22964;52.272;13.356;2023-06-22T15:15:48;34.80;34.00